Nome, AK

6:38 PM AKDT on July 26, 2016 (GMT -0800)
Nome | | Change Station

Elev 36 ft 64.51 °N, 165.45 °W | Updated 45 minutes ago

Mostly Cloudy
Mostly Cloudy
56 °F
Feels Like 56 °F
N
15
Wind Variable Wind from WSW

Today
High -- | Low -- °F
--% Chance of Precip.
Yesterday
High -- | Low -- °F
Precip. -- in
Pressure 29.69 in
Visibility 10.0 miles
Clouds Scattered Clouds 10000 ft
Mostly Cloudy 20000 ft
Dew Point 50 °F
Humidity 80%
Rainfall 0.00 in
Snow Depth Not available.
5:47 AM 0:26 AM
Waning Gibbous, 48% visible
METAR PAOM 270153Z 25013KT 10SM SCT100 BKN200 13/10 A2968 RMK SLP052 T01330100 VIA AUTODIAL
Pressure 29.69 in
Visibility 10.0 miles
Clouds Scattered Clouds 10000 ft
Mostly Cloudy 20000 ft
Dew Point 50 °F
Humidity 80%
Rainfall 0.00 in
Snow Depth Not available.
5:47 AM 0:26 AM
Waning Gibbous, 48% visible
METAR PAOM 270153Z 25013KT 10SM SCT100 BKN200 13/10 A2968 RMK SLP052 T01330100 VIA AUTODIAL

10-Day Weather Forecast

Almanac

Astronomy

Jul. 26, 2016 Rise Set
Actual Time
Civil Twilight
Nautical Twilight
Astronomical Twilight
Moon
Length of Visible Light
Length of Day
Tomorrow will be .
, % of the Moon is Illuminated

Today's Extremes

State Highs State Lows

Community

WunderPhotos

Upload Photos

1,927,779 photos uploaded!

WunderBlog® & News

Nearby

Air Quality

  Air Quality AQ Index Pollutant
Not available.

Snow Depth

Station Depth Elevation

Earthquake Activity

City Distance Mag. Time & Date
Minimum magnitude displayed is 2.5.

Coastal Water Temperatures

Place Temperature

Stations

Nearby Weather Stations

Station Location Temp. Windchill Dew Point Humidity Wind Precip. Elev Updated Type
                   

Watches & Warnings

There are currently no watches in effect.